createdAt,value
2018-09-21T00:00:33.109Z,4.20
2018-09-21T00:03:02.441Z,4.47
2018-09-21T00:05:31.820Z,3.87
2018-09-21T00:08:00.791Z,4.27
2018-09-21T00:10:29.889Z,4.00
2018-09-21T00:12:58.801Z,3.17
2018-09-21T00:15:28.556Z,4.23
2018-09-21T00:17:57.505Z,3.63
2018-09-21T00:20:26.830Z,5.97
2018-09-21T00:22:56.147Z,4.87
2018-09-21T00:25:25.923Z,5.40
2018-09-21T00:27:55.195Z,5.73
2018-09-21T00:30:24.078Z,4.83
2018-09-21T00:32:54.066Z,4.40
2018-09-21T00:35:23.029Z,4.90
2018-09-21T00:37:52.332Z,5.40
2018-09-21T00:40:21.293Z,4.40
2018-09-21T00:42:50.538Z,4.13
2018-09-21T00:45:19.841Z,4.37
2018-09-21T00:47:48.790Z,4.70
2018-09-21T00:50:17.998Z,4.47
2018-09-21T00:52:47.316Z,5.67
2018-09-21T00:55:16.618Z,5.80
2018-09-21T00:57:45.913Z,5.07
2018-09-21T01:00:14.866Z,6.20
2018-09-21T01:02:43.695Z,6.70
2018-09-21T01:05:12.839Z,5.90
2018-09-21T01:07:44.073Z,6.27
2018-09-21T01:10:13.050Z,8.90
2018-09-21T01:12:41.941Z,6.60
2018-09-21T01:15:10.756Z,6.20
2018-09-21T01:17:39.976Z,6.20
2018-09-21T01:20:08.891Z,5.80
2018-09-21T01:22:37.719Z,6.23
2018-09-21T01:25:06.677Z,5.33
2018-09-21T01:27:35.866Z,6.97
2018-09-21T01:30:04.896Z,6.33
2018-09-21T01:32:34.110Z,5.43
2018-09-21T01:35:02.992Z,6.97
2018-09-21T01:37:31.825Z,5.80
2018-09-21T01:40:01.173Z,6.33
2018-09-21T01:42:31.245Z,6.63
2018-09-21T01:45:00.158Z,6.20
2018-09-21T01:47:29.383Z,4.73
2018-09-21T01:49:58.762Z,5.47
2018-09-21T01:52:28.059Z,6.40
2018-09-21T01:54:57.434Z,7.87
2018-09-21T01:57:26.730Z,6.13
2018-09-21T01:59:56.013Z,3.07
2018-09-21T02:02:25.330Z,3.20
2018-09-21T02:04:54.202Z,2.23
2018-09-21T02:07:23.012Z,2.83
2018-09-21T02:09:52.230Z,1.80
2018-09-21T02:12:21.506Z,2.67
2018-09-21T02:14:50.811Z,2.20
2018-09-21T02:17:19.769Z,2.47
2018-09-21T02:19:49.034Z,2.00
2018-09-21T02:22:18.168Z,2.67
2018-09-21T02:24:47.421Z,2.77
2018-09-21T02:27:17.353Z,3.70
2018-09-21T02:29:46.621Z,3.73
2018-09-21T02:32:15.721Z,3.73
2018-09-21T02:34:44.530Z,3.07
2018-09-21T02:37:13.693Z,4.03
2018-09-21T02:39:42.671Z,3.93
2018-09-21T02:42:11.486Z,4.80
2018-09-21T02:44:40.385Z,4.13
2018-09-21T02:47:09.190Z,3.03
2018-09-21T02:49:38.030Z,2.83
2018-09-21T02:52:06.918Z,3.10
2018-09-21T02:54:36.158Z,2.40
2018-09-21T02:57:05.041Z,1.90
2018-09-21T02:59:33.862Z,1.60
2018-09-21T03:02:02.676Z,2.17
2018-09-21T03:04:31.884Z,2.30
2018-09-21T03:07:01.185Z,2.13
2018-09-21T03:09:30.140Z,2.33
2018-09-21T03:11:59.330Z,1.67
2018-09-21T03:14:28.602Z,2.17
2018-09-21T03:16:57.902Z,1.83
2018-09-21T03:19:27.215Z,2.27
2018-09-21T03:21:56.113Z,2.47
2018-09-21T03:24:24.944Z,1.60
2018-09-21T03:26:53.772Z,1.60
2018-09-21T03:29:22.721Z,1.30
2018-09-21T03:31:51.523Z,1.73
2018-09-21T03:34:21.228Z,2.43
2018-09-21T03:36:50.115Z,1.63
2018-09-21T03:39:19.572Z,2.20
2018-09-21T03:41:48.971Z,1.53
2018-09-21T03:44:18.949Z,1.60
2018-09-21T03:46:48.075Z,1.13
2018-09-21T03:49:17.234Z,1.63
2018-09-21T03:51:46.033Z,1.20
2018-09-21T03:54:15.260Z,1.20
2018-09-21T03:56:44.417Z,1.77
2018-09-21T03:59:13.273Z,1.33
2018-09-21T04:01:42.079Z,1.30
2018-09-21T04:04:10.889Z,1.30
2018-09-21T04:06:40.095Z,0.90
2018-09-21T04:09:10.549Z,2.07
2018-09-21T04:11:39.474Z,1.30
2018-09-21T04:14:08.680Z,1.20
2018-09-21T04:16:37.598Z,1.60
2018-09-21T04:19:06.464Z,0.97
2018-09-21T04:21:35.293Z,1.17
2018-09-21T04:24:04.562Z,1.70
2018-09-21T04:26:33.478Z,1.03
2018-09-21T04:29:02.670Z,0.70
2018-09-21T04:31:31.961Z,0.80
2018-09-21T04:34:01.016Z,1.20
2018-09-21T04:36:30.817Z,0.67
2018-09-21T04:38:59.710Z,0.77
2018-09-21T04:41:29.806Z,0.70
2018-09-21T04:43:59.158Z,0.50
2018-09-21T04:46:28.789Z,0.30
2018-09-21T04:48:57.780Z,0.60
2018-09-21T04:51:26.617Z,0.50
2018-09-21T04:53:55.828Z,0.60
2018-09-21T04:56:24.723Z,0.87
2018-09-21T04:58:53.982Z,1.07
2018-09-21T05:01:23.078Z,0.50
2018-09-21T05:03:52.294Z,0.80
2018-09-21T05:06:21.370Z,0.90
2018-09-21T05:08:50.609Z,0.80
2018-09-21T05:11:19.973Z,0.83
2018-09-21T05:13:48.983Z,0.60
2018-09-21T05:16:17.762Z,1.33
2018-09-21T05:18:47.009Z,0.47
2018-09-21T05:21:16.426Z,0.73
2018-09-21T05:23:45.365Z,0.60
2018-09-21T05:26:14.181Z,0.77
2018-09-21T05:28:43.381Z,0.50
2018-09-21T05:31:12.694Z,0.77
2018-09-21T05:36:35.091Z,0.70
2018-09-21T05:39:05.334Z,0.40
2018-09-21T05:41:34.155Z,0.70
2018-09-21T05:44:02.973Z,0.87
2018-09-21T05:46:32.242Z,1.50
2018-09-21T05:49:01.197Z,0.70
2018-09-21T05:51:30.066Z,0.60
2018-09-21T05:54:01.622Z,0.50
2018-09-21T05:59:32.861Z,0.60
2018-09-21T06:02:01.719Z,0.60
2018-09-21T06:04:30.527Z,1.00
2018-09-21T06:06:59.418Z,0.70
2018-09-21T06:09:28.249Z,0.60
2018-09-21T06:11:57.134Z,0.70
2018-09-21T06:14:26.150Z,0.73
2018-09-21T06:16:55.002Z,0.70
2018-09-21T06:19:23.879Z,0.67
2018-09-21T06:21:55.609Z,0.73
2018-09-21T06:24:24.401Z,0.90
2018-09-21T06:26:53.647Z,0.70
2018-09-21T06:29:22.967Z,0.83
2018-09-21T06:31:52.466Z,0.50
2018-09-21T06:34:21.753Z,1.13
2018-09-21T06:36:51.293Z,0.50
2018-09-21T06:39:20.611Z,0.60
2018-09-21T06:41:49.505Z,1.97
2018-09-21T06:44:18.323Z,0.53
2018-09-21T06:46:47.187Z,0.50
2018-09-21T06:49:16.027Z,0.70
2018-09-21T06:51:44.839Z,0.83
2018-09-21T06:54:14.055Z,0.60
2018-09-21T06:56:42.998Z,0.50
2018-09-21T06:59:11.810Z,0.40
2018-09-21T07:01:40.616Z,0.40
2018-09-21T07:04:12.254Z,0.53
2018-09-21T07:06:41.594Z,0.33
2018-09-21T07:09:12.569Z,0.40
2018-09-21T07:11:42.282Z,0.43
2018-09-21T07:14:12.370Z,0.80
2018-09-21T07:16:41.618Z,0.20
2018-09-21T07:19:10.465Z,0.33
2018-09-21T07:21:39.280Z,0.57
2018-09-21T07:24:08.102Z,0.50
2018-09-21T07:26:37.397Z,0.50
2018-09-21T07:29:06.301Z,0.50
2018-09-21T07:31:35.160Z,0.40
2018-09-21T07:34:04.399Z,0.50
2018-09-21T07:36:33.354Z,0.47
2018-09-21T07:39:02.573Z,0.60
2018-09-21T07:41:31.466Z,0.47
2018-09-21T07:44:00.706Z,0.50
2018-09-21T07:46:29.669Z,0.40
2018-09-21T07:48:58.524Z,0.40
2018-09-21T07:51:27.710Z,0.63
2018-09-21T07:53:56.882Z,0.47
2018-09-21T07:56:25.741Z,0.40
2018-09-21T07:58:54.905Z,0.40
2018-09-21T08:01:23.800Z,0.43
2018-09-21T08:03:52.629Z,0.70
2018-09-21T08:06:21.540Z,0.47
2018-09-21T08:08:50.341Z,0.50
2018-09-21T08:11:19.229Z,0.50
2018-09-21T08:13:48.439Z,0.60
2018-09-21T08:16:17.383Z,0.77
2018-09-21T08:18:46.655Z,0.70
2018-09-21T08:21:15.563Z,0.50
2018-09-21T08:23:44.375Z,0.50
2018-09-21T08:26:13.241Z,0.47
2018-09-21T08:28:42.045Z,0.73
2018-09-21T08:31:11.246Z,0.70
2018-09-21T08:33:40.590Z,0.70
2018-09-21T08:36:09.520Z,0.40
2018-09-21T08:38:38.343Z,0.50
2018-09-21T08:41:07.534Z,0.70
2018-09-21T08:43:36.433Z,0.63
2018-09-21T08:46:05.319Z,0.60
2018-09-21T08:48:34.225Z,0.50
2018-09-21T08:51:03.453Z,0.50
2018-09-21T08:53:32.308Z,0.70
2018-09-21T08:56:02.318Z,0.70
2018-09-21T08:58:31.212Z,0.77
2018-09-21T09:01:00.011Z,1.23
2018-09-21T09:03:29.085Z,0.80
2018-09-21T09:05:57.881Z,0.80
2018-09-21T09:08:26.832Z,0.53
2018-09-21T09:10:56.048Z,0.67
2018-09-21T09:13:25.370Z,0.67
2018-09-21T09:15:54.305Z,1.00
2018-09-21T09:18:23.572Z,0.80
2018-09-21T09:20:52.470Z,0.77
2018-09-21T09:23:21.309Z,0.50
2018-09-21T09:25:50.140Z,0.80
2018-09-21T09:28:19.014Z,0.53
2018-09-21T09:30:48.200Z,0.60
2018-09-21T09:33:17.302Z,0.60
2018-09-21T09:35:46.110Z,0.60
2018-09-21T09:38:15.253Z,0.60
2018-09-21T09:40:44.087Z,0.70
2018-09-21T09:43:12.994Z,0.80
2018-09-21T09:45:43.109Z,0.80
2018-09-21T09:48:12.339Z,1.40
2018-09-21T09:50:41.748Z,0.70
2018-09-21T09:53:10.768Z,0.80
2018-09-21T09:55:39.565Z,0.60
2018-09-21T09:58:09.347Z,0.70
2018-09-21T10:00:43.700Z,0.53
2018-09-21T10:03:12.960Z,0.57
2018-09-21T10:05:43.318Z,1.07
2018-09-21T10:08:13.296Z,0.60
2018-09-21T10:10:42.347Z,0.70
2018-09-21T10:13:11.729Z,0.83
2018-09-21T10:15:41.026Z,0.70
2018-09-21T10:18:10.582Z,0.60
2018-09-21T10:20:39.437Z,0.97
2018-09-21T10:23:08.616Z,0.80
2018-09-21T10:25:38.092Z,0.70
2018-09-21T10:28:07.480Z,1.00
2018-09-21T10:30:36.971Z,0.83
2018-09-21T10:33:06.353Z,0.87
2018-09-21T10:35:35.416Z,0.60
2018-09-21T10:38:04.202Z,0.77
2018-09-21T10:40:33.990Z,0.90
2018-09-21T10:43:03.012Z,0.70
2018-09-21T10:45:31.845Z,1.10
2018-09-21T10:48:00.679Z,0.60
2018-09-21T10:50:29.923Z,0.50
2018-09-21T10:52:58.937Z,0.67
2018-09-21T10:55:27.864Z,0.67
2018-09-21T10:57:57.410Z,0.90
2018-09-21T11:00:26.769Z,1.07
2018-09-21T11:02:56.224Z,1.07
2018-09-21T11:05:25.541Z,0.57
2018-09-21T11:07:55.108Z,0.83
2018-09-21T11:10:24.366Z,0.77
2018-09-21T11:12:53.297Z,0.70
2018-09-21T11:15:22.206Z,0.70
2018-09-21T11:17:52.527Z,0.87
2018-09-21T11:20:21.758Z,0.77
2018-09-21T11:22:50.653Z,0.93
2018-09-21T11:25:19.478Z,0.80
2018-09-21T11:27:48.352Z,0.80
2018-09-21T11:30:17.549Z,0.80
2018-09-21T11:32:46.836Z,0.70
2018-09-21T11:35:15.809Z,0.70
2018-09-21T11:37:44.628Z,1.00
2018-09-21T11:40:13.518Z,0.70
2018-09-21T11:42:42.371Z,0.93
2018-09-21T11:45:12.758Z,1.00
2018-09-21T11:47:41.752Z,0.93
2018-09-21T11:50:10.937Z,0.90
2018-09-21T11:52:39.821Z,0.83
2018-09-21T11:55:08.673Z,1.03
2018-09-21T11:57:42.635Z,0.93
2018-09-21T12:00:11.610Z,1.00
2018-09-21T12:02:40.447Z,1.07
2018-09-21T12:05:09.331Z,0.60
2018-09-21T12:07:38.564Z,1.23
2018-09-21T12:10:09.614Z,0.87
2018-09-21T12:12:39.960Z,1.30
2018-09-21T12:15:09.246Z,1.00
2018-09-21T12:17:38.529Z,0.70
2018-09-21T12:20:07.522Z,1.00
2018-09-21T12:22:36.824Z,0.90
2018-09-21T12:25:22.133Z,0.80
2018-09-21T12:36:34.318Z,1.00
2018-09-21T12:39:14.865Z,1.00
2018-09-21T12:41:45.654Z,1.00
2018-09-21T12:44:15.164Z,0.90
2018-09-21T12:46:44.000Z,1.60
2018-09-21T12:49:12.808Z,1.00
2018-09-21T12:51:41.679Z,1.03
2018-09-21T12:54:10.902Z,1.27
2018-09-21T12:56:40.257Z,1.20
2018-09-21T12:59:09.583Z,1.10
2018-09-21T13:01:38.481Z,1.17
2018-09-21T13:04:07.301Z,1.20
2018-09-21T13:06:36.189Z,0.90
2018-09-21T13:09:06.306Z,0.90
2018-09-21T13:11:35.530Z,1.40
2018-09-21T13:14:05.468Z,1.53
2018-09-21T13:16:34.353Z,1.13
2018-09-21T13:19:03.488Z,1.07
2018-09-21T13:21:32.350Z,1.53
2018-09-21T13:24:01.161Z,1.50
2018-09-21T13:26:30.093Z,1.60
2018-09-21T13:28:59.414Z,1.77
2018-09-21T13:34:22.047Z,1.43
2018-09-21T13:36:52.336Z,1.10
2018-09-21T13:39:27.877Z,1.80
2018-09-21T13:42:11.970Z,1.13
2018-09-21T13:44:40.943Z,1.53
2018-09-21T13:50:14.219Z,1.10
2018-09-21T13:52:43.086Z,1.10
2018-09-21T13:55:12.424Z,1.10
2018-09-21T13:57:42.649Z,1.40
2018-09-21T14:00:12.661Z,1.40
2018-09-21T14:02:42.472Z,1.20
2018-09-21T14:05:12.414Z,1.53
2018-09-21T14:07:42.021Z,1.53
2018-09-21T14:10:11.803Z,1.20
2018-09-21T14:12:41.053Z,2.27
2018-09-21T14:15:09.872Z,1.43
2018-09-21T14:17:39.091Z,1.73
2018-09-21T14:20:08.088Z,1.50
2018-09-21T14:22:37.291Z,1.40
2018-09-21T14:25:08.914Z,1.60
2018-09-21T14:27:37.847Z,1.70
2018-09-21T14:30:06.681Z,1.87
2018-09-21T14:32:35.549Z,1.50
2018-09-21T14:35:04.923Z,1.47
2018-09-21T14:37:34.290Z,1.50
2018-09-21T14:42:56.229Z,1.37
2018-09-21T14:45:25.005Z,1.47
2018-09-21T14:47:53.895Z,1.70
2018-09-21T14:50:22.675Z,1.17
2018-09-21T14:52:51.505Z,2.07
2018-09-21T14:55:20.329Z,2.33
2018-09-21T14:57:49.110Z,1.73
2018-09-21T15:00:17.968Z,1.67
2018-09-21T15:02:46.794Z,1.53
2018-09-21T15:05:15.751Z,1.30
2018-09-21T15:07:44.553Z,1.27
2018-09-21T15:10:13.457Z,2.23
2018-09-21T15:12:42.286Z,1.90
2018-09-21T15:15:11.145Z,1.20
2018-09-21T15:17:39.966Z,1.70
2018-09-21T15:20:08.828Z,1.47
2018-09-21T15:22:37.665Z,1.80
2018-09-21T15:25:06.484Z,2.50
2018-09-21T15:27:35.310Z,1.70
2018-09-21T15:30:04.148Z,1.73
2018-09-21T15:32:32.938Z,2.60
2018-09-21T15:35:01.775Z,1.70
2018-09-21T15:37:30.570Z,1.97
2018-09-21T15:39:59.361Z,1.73
2018-09-21T15:42:28.136Z,1.70
2018-09-21T15:44:56.972Z,1.80
2018-09-21T15:47:25.826Z,1.80
2018-09-21T15:49:54.611Z,1.60
2018-09-21T15:52:23.460Z,1.43
2018-09-21T15:54:52.322Z,1.77
2018-09-21T15:57:21.110Z,1.73
2018-09-21T15:59:50.095Z,1.70
2018-09-21T16:02:19.080Z,1.90
2018-09-21T16:04:47.917Z,1.73
2018-09-21T16:07:16.763Z,2.17
2018-09-21T16:09:45.532Z,1.60
2018-09-21T16:12:14.327Z,2.30
2018-09-21T16:14:43.151Z,1.67
2018-09-21T16:17:11.968Z,1.97
2018-09-21T16:19:40.809Z,1.63
2018-09-21T16:22:09.621Z,1.93
2018-09-21T16:24:38.437Z,1.97
2018-09-21T16:27:07.209Z,1.43
2018-09-21T16:29:36.087Z,1.80
2018-09-21T16:32:04.919Z,2.03
2018-09-21T16:34:33.699Z,1.43
2018-09-21T16:37:02.559Z,1.87
2018-09-21T16:39:31.378Z,1.90
2018-09-21T16:42:00.149Z,2.20
2018-09-21T16:44:29.038Z,1.43
2018-09-21T16:46:57.846Z,1.10
2018-09-21T16:49:26.636Z,1.20
2018-09-21T16:51:55.440Z,0.97
2018-09-21T16:54:24.269Z,1.47
2018-09-21T16:56:53.128Z,1.10
2018-09-21T16:59:21.966Z,1.20
2018-09-21T17:01:50.759Z,1.30
2018-09-21T17:04:20.028Z,0.90
2018-09-21T17:06:49.773Z,1.40
2018-09-21T17:09:18.869Z,0.97
2018-09-21T17:11:47.684Z,1.00
2018-09-21T17:14:16.526Z,1.10
2018-09-21T17:16:45.314Z,1.20
2018-09-21T17:19:14.272Z,1.00
2018-09-21T17:21:43.099Z,0.97
2018-09-21T17:24:11.876Z,1.40
2018-09-21T17:26:40.755Z,1.17
2018-09-21T17:29:09.524Z,1.10
2018-09-21T17:31:38.465Z,1.17
2018-09-21T17:34:07.341Z,1.00
2018-09-21T17:36:36.133Z,1.20
2018-09-21T17:39:07.344Z,1.07
2018-09-21T17:41:36.136Z,1.00
2018-09-21T17:44:04.993Z,1.33
2018-09-21T17:46:33.812Z,0.90
2018-09-21T17:49:02.577Z,1.40
2018-09-21T17:51:31.413Z,0.70
2018-09-21T17:54:00.253Z,1.20
2018-09-21T17:56:29.053Z,1.03
2018-09-21T17:58:57.804Z,1.13
2018-09-21T18:01:27.060Z,1.20
2018-09-21T18:03:55.821Z,1.17
2018-09-21T18:06:24.644Z,1.47
2018-09-21T18:08:53.462Z,1.60
2018-09-21T18:11:22.257Z,1.40
2018-09-21T18:13:51.105Z,1.37
2018-09-21T18:16:20.127Z,1.10
2018-09-21T18:18:49.933Z,1.17
2018-09-21T18:21:18.724Z,1.17
2018-09-21T18:23:47.585Z,1.27
2018-09-21T18:26:16.367Z,1.13
2018-09-21T18:28:45.157Z,1.00
2018-09-21T18:31:13.965Z,1.60
2018-09-21T18:33:42.823Z,1.27
2018-09-21T18:36:11.582Z,1.80
2018-09-21T18:38:40.394Z,1.47
2018-09-21T18:41:09.332Z,1.23
2018-09-21T18:43:38.167Z,1.87
2018-09-21T18:46:07.063Z,1.10
2018-09-21T18:48:35.894Z,1.43
2018-09-21T18:51:04.881Z,1.43
2018-09-21T18:53:33.695Z,0.93
2018-09-21T18:56:02.516Z,2.03
2018-09-21T18:58:31.409Z,1.43
2018-09-21T19:01:00.248Z,2.33
2018-09-21T19:03:29.130Z,1.47
2018-09-21T19:05:57.921Z,1.10
2018-09-21T19:08:26.708Z,1.40
2018-09-21T19:10:55.565Z,1.37
2018-09-21T19:13:24.697Z,1.47
2018-09-21T19:15:53.635Z,1.23
2018-09-21T19:18:22.497Z,1.60
2018-09-21T19:20:52.087Z,1.50
2018-09-21T19:23:20.942Z,1.40
2018-09-21T19:25:49.825Z,1.53
2018-09-21T19:28:18.628Z,1.67
2018-09-21T19:30:48.153Z,1.83
2018-09-21T19:33:18.069Z,1.60
2018-09-21T19:35:46.989Z,1.43
2018-09-21T19:38:16.202Z,1.57
2018-09-21T19:40:45.602Z,1.50
2018-09-21T19:43:14.579Z,1.77
2018-09-21T19:45:43.521Z,1.70
2018-09-21T19:48:12.404Z,1.50
2018-09-21T19:50:42.677Z,1.60
2018-09-21T19:53:12.574Z,1.43
2018-09-21T19:55:42.210Z,1.40
2018-09-21T19:58:11.155Z,1.60
2018-09-21T20:00:40.149Z,1.50
2018-09-21T20:03:09.161Z,1.53
2018-09-21T20:05:37.969Z,1.30
2018-09-21T20:08:06.834Z,1.80
2018-09-21T20:10:36.875Z,1.40
2018-09-21T20:13:05.835Z,1.53
2018-09-21T20:15:34.845Z,1.40
2018-09-21T20:18:03.660Z,1.60
2018-09-21T20:20:33.601Z,1.67
2018-09-21T20:23:03.181Z,1.10
2018-09-21T20:25:32.621Z,1.33
2018-09-21T20:28:02.083Z,1.47
2018-09-21T20:30:36.112Z,1.60
2018-09-21T20:33:10.237Z,1.40
2018-09-21T20:35:39.549Z,1.37
2018-09-21T20:38:08.384Z,1.10
2018-09-21T20:40:37.272Z,1.40
2018-09-21T20:43:06.099Z,1.33
2018-09-21T20:45:34.942Z,1.57
2018-09-21T20:48:04.449Z,1.07
2018-09-21T20:50:35.115Z,1.07
2018-09-21T20:53:03.971Z,1.10
2018-09-21T20:55:33.339Z,1.20
2018-09-21T20:58:02.646Z,1.77
2018-09-21T21:00:32.776Z,0.93
2018-09-21T21:03:01.590Z,1.30
2018-09-21T21:05:30.426Z,1.37
2018-09-21T21:07:59.737Z,1.40
2018-09-21T21:10:28.545Z,1.03
2018-09-21T21:12:57.490Z,1.80
2018-09-21T21:15:27.104Z,1.30
2018-09-21T21:17:56.303Z,1.80
2018-09-21T21:20:25.130Z,1.40
2018-09-21T21:22:53.913Z,0.93
2018-09-21T21:25:22.745Z,1.23
2018-09-21T21:27:51.601Z,1.20
2018-09-21T21:30:20.384Z,1.40
2018-09-21T21:32:49.194Z,1.23
2018-09-21T21:35:18.316Z,1.40
2018-09-21T21:37:47.136Z,1.40
2018-09-21T21:40:15.965Z,1.40
2018-09-21T21:42:44.809Z,1.30
2018-09-21T21:45:13.637Z,0.90
2018-09-21T21:47:43.500Z,1.10
2018-09-21T21:50:12.332Z,2.57
2018-09-21T21:52:41.605Z,1.20
2018-09-21T21:55:10.389Z,1.33
2018-09-21T21:57:39.221Z,0.90
2018-09-21T22:00:08.804Z,1.63
2018-09-21T22:02:37.585Z,1.03
2018-09-21T22:05:06.452Z,1.13
2018-09-21T22:07:36.433Z,1.30
2018-09-21T22:10:06.393Z,1.47
2018-09-21T22:12:40.413Z,1.33
2018-09-21T22:15:16.120Z,1.60
2018-09-21T22:17:45.216Z,1.27
2018-09-21T22:20:14.036Z,0.87
2018-09-21T22:22:42.852Z,1.70
2018-09-21T22:25:12.086Z,1.70
2018-09-21T22:27:41.421Z,1.20
2018-09-21T22:30:10.204Z,1.50
2018-09-21T22:32:39.950Z,1.60
2018-09-21T22:35:08.767Z,2.00
2018-09-21T22:37:37.552Z,1.20
2018-09-21T22:40:06.447Z,1.37
2018-09-21T22:42:35.276Z,1.50
2018-09-21T22:45:04.388Z,1.50
2018-09-21T22:47:33.194Z,2.00
2018-09-21T22:50:01.986Z,1.23
2018-09-21T22:52:30.780Z,1.50
2018-09-21T22:54:59.592Z,1.50
2018-09-21T22:57:28.441Z,1.80
2018-09-21T22:59:57.348Z,1.40
2018-09-21T23:02:26.204Z,1.40
2018-09-21T23:04:55.239Z,1.30
2018-09-21T23:07:24.056Z,1.30
2018-09-21T23:09:52.857Z,1.30
2018-09-21T23:12:21.657Z,1.30
2018-09-21T23:14:50.489Z,1.10
2018-09-21T23:17:19.283Z,1.17
2018-09-21T23:19:48.112Z,0.90
2018-09-21T23:22:16.900Z,1.60
2018-09-21T23:24:45.732Z,1.40
2018-09-21T23:27:14.568Z,1.50
2018-09-21T23:29:43.361Z,1.67
2018-09-21T23:32:12.197Z,1.00
2018-09-21T23:34:40.987Z,1.47
2018-09-21T23:37:09.772Z,1.50
2018-09-21T23:39:38.621Z,1.40
2018-09-21T23:42:07.450Z,1.60
2018-09-21T23:44:36.288Z,4.03
2018-09-21T23:47:05.140Z,1.93
2018-09-21T23:49:33.925Z,1.50
2018-09-21T23:52:02.776Z,1.70
2018-09-21T23:54:31.606Z,1.87
2018-09-21T23:57:01.692Z,1.27
2018-09-21T23:59:30.546Z,1.27
